createdAt,value
2022-07-25T00:01:48.193Z,0
2022-07-25T00:04:14.781Z,0
2022-07-25T00:06:41.414Z,0
2022-07-25T00:09:08.037Z,0
2022-07-25T00:11:33.181Z,0
2022-07-25T00:13:59.800Z,0
2022-07-25T00:16:26.422Z,0
2022-07-25T00:18:53.061Z,0
2022-07-25T00:21:19.684Z,0
2022-07-25T00:23:46.290Z,0
2022-07-25T00:26:12.905Z,0
2022-07-25T00:28:39.542Z,0
2022-07-25T00:31:06.178Z,0
2022-07-25T00:33:32.774Z,0
2022-07-25T00:35:59.487Z,0
2022-07-25T00:38:26.028Z,0
2022-07-25T00:40:52.682Z,0
2022-07-25T00:43:17.823Z,0
2022-07-25T00:45:44.401Z,0
2022-07-25T00:48:11.076Z,0
2022-07-25T00:50:37.659Z,0
2022-07-25T00:53:04.258Z,0
2022-07-25T00:55:30.885Z,0
2022-07-25T00:57:57.519Z,0
2022-07-25T01:00:24.190Z,0
2022-07-25T01:02:50.748Z,0
2022-07-25T01:05:17.409Z,0
2022-07-25T01:07:44.097Z,0
2022-07-25T01:10:10.623Z,0
2022-07-25T01:12:37.253Z,0
2022-07-25T01:15:02.373Z,0
2022-07-25T01:17:29.001Z,0
2022-07-25T01:19:55.639Z,0
2022-07-25T01:22:22.235Z,0
2022-07-25T01:24:48.868Z,0
2022-07-25T01:27:15.491Z,0
2022-07-25T01:29:42.115Z,0
2022-07-25T01:32:08.731Z,0
2022-07-25T01:34:35.372Z,0
2022-07-25T01:37:01.964Z,0
2022-07-25T01:39:28.597Z,0
2022-07-25T01:41:55.211Z,0
2022-07-25T01:44:21.840Z,0
2022-07-25T01:46:46.967Z,0
2022-07-25T01:49:13.599Z,0
2022-07-25T01:51:40.208Z,0
2022-07-25T01:54:06.851Z,0
2022-07-25T01:56:33.463Z,0
2022-07-25T01:59:00.087Z,0
2022-07-25T02:01:26.698Z,0
2022-07-25T02:03:53.333Z,0
2022-07-25T02:06:19.956Z,0
2022-07-25T02:08:46.590Z,0
2022-07-25T02:11:13.199Z,0
2022-07-25T02:13:39.821Z,0
2022-07-25T02:16:06.449Z,0
2022-07-25T02:18:31.572Z,0
2022-07-25T02:20:58.194Z,0
2022-07-25T02:23:24.818Z,0
2022-07-25T02:25:51.432Z,0
2022-07-25T02:28:18.052Z,0
2022-07-25T02:30:44.673Z,0
2022-07-25T02:33:11.302Z,0
2022-07-25T02:35:37.932Z,0
2022-07-25T02:38:04.564Z,0
2022-07-25T02:40:31.177Z,0
2022-07-25T02:42:57.803Z,0
2022-07-25T02:45:24.426Z,0
2022-07-25T02:47:51.056Z,0
2022-07-25T02:50:16.173Z,0
2022-07-25T02:52:42.792Z,0
2022-07-25T02:55:09.410Z,0
2022-07-25T02:57:36.031Z,0
2022-07-25T03:00:02.652Z,0
2022-07-25T03:02:29.278Z,0
2022-07-25T03:04:55.898Z,0
2022-07-25T03:07:22.553Z,0
2022-07-25T03:09:49.156Z,0
2022-07-25T03:12:15.784Z,0
2022-07-25T03:14:42.389Z,0
2022-07-25T03:17:09.013Z,0
2022-07-25T03:19:35.662Z,0
2022-07-25T03:22:00.777Z,0
2022-07-25T03:26:54.019Z,0
2022-07-25T03:29:20.623Z,0
2022-07-25T03:31:47.255Z,0
2022-07-25T03:34:13.897Z,0
2022-07-25T03:36:40.850Z,0
2022-07-25T03:41:33.745Z,0
2022-07-25T03:44:00.387Z,0
2022-07-25T03:46:26.991Z,0
2022-07-25T03:48:53.625Z,5
2022-07-25T03:51:20.233Z,5
2022-07-25T03:56:11.974Z,5
2022-07-25T03:58:37.115Z,11
2022-07-25T04:01:02.243Z,11
2022-07-25T04:03:28.862Z,11
2022-07-25T04:05:55.487Z,16
2022-07-25T04:08:22.115Z,16
2022-07-25T04:10:48.734Z,16
2022-07-25T04:13:15.353Z,22
2022-07-25T04:15:41.986Z,22
2022-07-25T04:18:08.605Z,28
2022-07-25T04:20:35.221Z,28
2022-07-25T04:23:01.853Z,28
2022-07-25T04:25:28.557Z,33
2022-07-25T04:27:55.092Z,33
2022-07-25T04:30:20.248Z,33
2022-07-25T04:32:46.851Z,39
2022-07-25T04:35:11.969Z,39
2022-07-25T04:37:38.603Z,45
2022-07-25T04:40:05.212Z,45
2022-07-25T04:42:31.844Z,45
2022-07-25T04:44:58.464Z,50
2022-07-25T04:47:25.084Z,50
2022-07-25T04:49:51.722Z,50
2022-07-25T04:54:44.954Z,56
2022-07-25T04:57:11.581Z,56
2022-07-25T04:59:38.198Z,61
2022-07-25T05:02:04.828Z,61
2022-07-25T05:04:31.451Z,67
2022-07-25T05:06:56.573Z,67
2022-07-25T05:09:23.197Z,67
2022-07-25T05:11:49.820Z,73
2022-07-25T05:14:16.959Z,73
2022-07-25T05:16:43.096Z,78
2022-07-25T05:19:09.681Z,78
2022-07-25T05:21:36.325Z,78
2022-07-25T05:24:02.931Z,84
2022-07-25T05:26:29.556Z,84
2022-07-25T05:28:56.189Z,90
2022-07-25T05:31:22.807Z,90
2022-07-25T05:33:49.431Z,90
2022-07-25T05:41:09.305Z,95
2022-07-25T05:43:34.445Z,101
2022-07-25T05:46:01.070Z,106
2022-07-25T05:48:26.183Z,106
2022-07-25T05:50:52.864Z,112
2022-07-25T05:53:19.422Z,112
2022-07-25T05:55:46.074Z,112
2022-07-25T05:58:12.662Z,118
2022-07-25T06:00:39.301Z,123
2022-07-25T06:03:05.937Z,123
2022-07-25T06:07:59.153Z,123
2022-07-25T06:10:25.800Z,129
2022-07-25T06:12:52.414Z,129
2022-07-25T06:15:17.534Z,135
2022-07-25T06:17:44.169Z,135
2022-07-25T06:20:10.811Z,135
2022-07-25T06:22:37.412Z,140
2022-07-25T06:25:04.038Z,146
2022-07-25T06:27:30.683Z,146
2022-07-25T06:29:57.284Z,151
2022-07-25T06:32:23.902Z,157
2022-07-25T06:34:50.548Z,180
2022-07-25T06:37:17.153Z,163
2022-07-25T06:39:43.777Z,219
2022-07-25T06:42:10.406Z,174
2022-07-25T06:44:37.041Z,185
2022-07-25T06:47:02.145Z,225
2022-07-25T06:49:28.789Z,174
2022-07-25T06:51:55.411Z,191
2022-07-25T06:54:20.551Z,191
2022-07-25T06:56:45.648Z,185
2022-07-25T06:59:12.304Z,185
2022-07-25T07:01:38.909Z,219
2022-07-25T07:04:05.526Z,241
2022-07-25T07:06:32.151Z,259
2022-07-25T07:08:58.762Z,439
2022-07-25T07:11:25.382Z,654
2022-07-25T07:13:52.017Z,1631
2022-07-25T07:16:18.638Z,2173
2022-07-25T07:18:45.360Z,2128
2022-07-25T07:21:11.882Z,1953
2022-07-25T07:23:38.510Z,2315
2022-07-25T07:26:05.116Z,2371
2022-07-25T07:28:30.244Z,2399
2022-07-25T07:30:56.871Z,2523
2022-07-25T07:33:23.538Z,2399
2022-07-25T07:35:50.164Z,2405
2022-07-25T07:38:16.744Z,2326
2022-07-25T07:40:43.381Z,2433
2022-07-25T07:43:10.043Z,2427
2022-07-25T07:45:36.602Z,2586
2022-07-25T07:48:03.261Z,2749
2022-07-25T07:50:29.851Z,2687
2022-07-25T07:52:56.487Z,2771
2022-07-25T07:55:23.118Z,2766
2022-07-25T07:57:49.726Z,2608
2022-07-25T08:00:14.847Z,2732
2022-07-25T08:02:41.500Z,2913
2022-07-25T08:05:08.125Z,2857
2022-07-25T08:07:34.732Z,3009
2022-07-25T08:10:01.338Z,3246
2022-07-25T08:12:27.959Z,2952
2022-07-25T08:14:54.586Z,2681
2022-07-25T08:19:47.842Z,3449
2022-07-25T08:22:14.465Z,3291
2022-07-25T08:24:40.241Z,3608
2022-07-25T08:27:06.882Z,3461
2022-07-25T08:29:33.496Z,3065
2022-07-25T08:34:25.241Z,3794
2022-07-25T08:36:51.856Z,3506
2022-07-25T08:39:18.481Z,3195
2022-07-25T08:44:11.741Z,4093
2022-07-25T08:46:36.877Z,3545
2022-07-25T08:51:28.611Z,3404
2022-07-25T08:53:55.249Z,3393
2022-07-25T08:56:21.865Z,3489
2022-07-25T08:58:48.486Z,3614
2022-07-25T09:01:15.115Z,3573
2022-07-25T09:03:41.746Z,3862
2022-07-25T09:06:08.367Z,3653
2022-07-25T09:08:35.227Z,3630
2022-07-25T09:11:01.617Z,3455
2022-07-25T09:13:28.217Z,3461
2022-07-25T09:15:53.364Z,3365
2022-07-25T09:18:18.494Z,3359
2022-07-25T09:20:45.108Z,3545
2022-07-25T09:23:11.737Z,3235
2022-07-25T09:25:38.370Z,3026
2022-07-25T09:28:04.997Z,3608
2022-07-25T09:30:31.616Z,4036
2022-07-25T09:32:58.233Z,3670
2022-07-25T09:35:24.861Z,2840
2022-07-25T09:37:51.671Z,3072
2022-07-25T09:40:18.097Z,3822
2022-07-25T09:42:44.733Z,4223
2022-07-25T09:45:11.350Z,4031
2022-07-25T09:47:37.984Z,4421
2022-07-25T09:50:03.102Z,4370
2022-07-25T09:52:29.737Z,3935
2022-07-25T09:54:56.403Z,4347
2022-07-25T09:57:22.973Z,4285
2022-07-25T09:59:49.618Z,4065
2022-07-25T10:02:16.223Z,3991
2022-07-25T10:04:42.835Z,4268
2022-07-25T10:07:09.464Z,4240
2022-07-25T10:09:36.089Z,2241
2022-07-25T10:12:02.721Z,456
2022-07-25T10:14:29.351Z,394
2022-07-25T10:16:55.960Z,389
2022-07-25T10:19:22.591Z,377
2022-07-25T10:21:47.717Z,372
2022-07-25T10:24:14.344Z,361
2022-07-25T10:26:40.975Z,344
2022-07-25T10:29:07.620Z,332
2022-07-25T10:31:34.210Z,316
2022-07-25T10:34:00.832Z,276
2022-07-25T10:36:27.473Z,282
2022-07-25T10:38:54.101Z,265
2022-07-25T10:41:20.722Z,265
2022-07-25T10:43:47.376Z,276
2022-07-25T10:46:13.965Z,259
2022-07-25T10:48:40.598Z,253
2022-07-25T10:51:07.218Z,265
2022-07-25T10:53:32.348Z,299
2022-07-25T10:58:25.585Z,247
2022-07-25T11:00:52.228Z,241
2022-07-25T11:03:18.837Z,265
2022-07-25T11:05:45.477Z,241
2022-07-25T11:10:38.718Z,236
2022-07-25T11:13:05.343Z,225
2022-07-25T11:15:31.971Z,225
2022-07-25T11:17:58.598Z,241
2022-07-25T11:20:25.220Z,230
2022-07-25T11:22:51.836Z,219
2022-07-25T11:25:16.980Z,174
2022-07-25T11:27:43.608Z,259
2022-07-25T11:30:10.208Z,219
2022-07-25T11:32:36.853Z,225
2022-07-25T11:35:03.465Z,208
2022-07-25T11:37:30.102Z,230
2022-07-25T11:39:56.708Z,219
2022-07-25T11:44:49.969Z,196
2022-07-25T11:47:15.097Z,202
2022-07-25T11:52:06.863Z,202
2022-07-25T11:54:33.474Z,213
2022-07-25T11:57:00.098Z,196
2022-07-25T11:59:26.723Z,185
2022-07-25T12:01:53.371Z,180
2022-07-25T12:04:20.019Z,174
2022-07-25T12:06:46.605Z,174
2022-07-25T12:09:13.229Z,174
2022-07-25T12:11:39.867Z,168
2022-07-25T12:16:33.105Z,174
2022-07-25T12:18:59.724Z,230
2022-07-25T12:21:24.880Z,236
2022-07-25T12:23:51.479Z,247
2022-07-25T12:26:18.141Z,213
2022-07-25T12:28:44.739Z,219
2022-07-25T12:31:11.396Z,219
2022-07-25T12:33:38.016Z,180
2022-07-25T12:36:04.602Z,208
2022-07-25T12:38:31.236Z,299
2022-07-25T12:40:57.854Z,293
2022-07-25T12:43:22.993Z,219
2022-07-25T12:45:48.124Z,253
2022-07-25T12:48:14.732Z,253
2022-07-25T12:50:41.363Z,208
2022-07-25T12:53:07.995Z,236
2022-07-25T12:55:34.626Z,259
2022-07-25T12:58:01.252Z,344
2022-07-25T13:00:27.863Z,293
2022-07-25T13:02:54.492Z,225
2022-07-25T13:05:21.133Z,225
2022-07-25T13:07:47.739Z,180
2022-07-25T13:10:14.369Z,174
2022-07-25T13:12:40.995Z,168
2022-07-25T13:15:07.611Z,168
2022-07-25T13:17:32.745Z,208
2022-07-25T13:19:59.371Z,191
2022-07-25T13:22:25.991Z,196
2022-07-25T13:24:52.611Z,225
2022-07-25T13:27:19.272Z,247
2022-07-25T13:29:45.861Z,265
2022-07-25T13:32:12.499Z,276
2022-07-25T13:34:39.143Z,259
2022-07-25T13:37:05.726Z,265
2022-07-25T13:39:32.375Z,310
2022-07-25T13:41:58.982Z,282
2022-07-25T13:44:25.611Z,253
2022-07-25T13:46:52.239Z,236
2022-07-25T13:49:17.369Z,236
2022-07-25T13:51:43.980Z,208
2022-07-25T13:54:10.643Z,180
2022-07-25T13:56:37.235Z,168
2022-07-25T13:59:03.862Z,174
2022-07-25T14:01:30.489Z,157
2022-07-25T14:03:57.155Z,135
2022-07-25T14:06:23.747Z,129
2022-07-25T14:08:50.307Z,151
2022-07-25T14:11:16.939Z,196
2022-07-25T14:13:43.572Z,247
2022-07-25T14:16:10.182Z,253
2022-07-25T14:18:36.811Z,265
2022-07-25T14:21:01.943Z,276
2022-07-25T14:23:28.576Z,299
2022-07-25T14:25:53.697Z,293
2022-07-25T14:28:20.326Z,253
2022-07-25T14:30:46.963Z,196
2022-07-25T14:33:13.599Z,123
2022-07-25T14:35:40.198Z,84
2022-07-25T14:38:06.834Z,73
2022-07-25T14:40:33.462Z,50
2022-07-25T14:43:00.082Z,39
2022-07-25T14:45:26.706Z,61
2022-07-25T14:47:53.330Z,123
2022-07-25T14:50:19.941Z,213
2022-07-25T14:52:46.565Z,293
2022-07-25T14:55:13.207Z,276
2022-07-25T14:57:38.329Z,230
2022-07-25T15:00:04.961Z,271
2022-07-25T15:02:31.578Z,225
2022-07-25T15:04:58.211Z,213
2022-07-25T15:07:24.822Z,202
2022-07-25T15:09:51.462Z,230
2022-07-25T15:12:18.084Z,157
2022-07-25T15:14:44.730Z,123
2022-07-25T15:19:37.955Z,118
2022-07-25T15:22:04.561Z,112
2022-07-25T15:24:31.233Z,123
2022-07-25T15:26:57.825Z,135
2022-07-25T15:29:22.961Z,146
2022-07-25T15:31:49.573Z,157
2022-07-25T15:34:16.190Z,140
2022-07-25T15:36:42.861Z,123
2022-07-25T15:39:09.446Z,112
2022-07-25T15:41:36.078Z,151
2022-07-25T15:44:02.694Z,135
2022-07-25T15:46:29.319Z,140
2022-07-25T15:48:55.943Z,157
2022-07-25T15:51:22.560Z,157
2022-07-25T15:53:49.196Z,151
2022-07-25T15:56:15.821Z,135
2022-07-25T15:58:42.434Z,112
2022-07-25T16:01:07.566Z,106
2022-07-25T16:03:34.186Z,84
2022-07-25T16:06:00.815Z,84
2022-07-25T16:08:27.436Z,90
2022-07-25T16:13:20.689Z,106
2022-07-25T16:15:47.320Z,106
2022-07-25T16:18:13.937Z,123
2022-07-25T16:23:07.195Z,129
2022-07-25T16:25:33.816Z,123
2022-07-25T16:28:00.434Z,112
2022-07-25T16:30:27.065Z,95
2022-07-25T16:32:52.187Z,73
2022-07-25T16:35:18.813Z,61
2022-07-25T16:37:45.432Z,50
2022-07-25T16:40:12.054Z,45
2022-07-25T16:42:38.690Z,50
2022-07-25T16:45:04.411Z,45
2022-07-25T16:47:31.021Z,45
2022-07-25T16:52:24.276Z,61
2022-07-25T16:54:49.408Z,78
2022-07-25T16:59:41.175Z,84
2022-07-25T17:02:07.765Z,73
2022-07-25T17:07:01.019Z,61
2022-07-25T17:09:27.645Z,50
2022-07-25T17:11:54.281Z,39
2022-07-25T17:14:20.901Z,39
2022-07-25T17:16:47.523Z,39
2022-07-25T17:19:14.139Z,39
2022-07-25T17:21:40.771Z,39
2022-07-25T17:24:07.395Z,50
2022-07-25T17:26:34.022Z,61
2022-07-25T17:29:00.649Z,135
2022-07-25T17:31:25.777Z,129
2022-07-25T17:33:52.396Z,101
2022-07-25T17:36:19.015Z,73
2022-07-25T17:38:45.650Z,106
2022-07-25T17:41:12.274Z,123
2022-07-25T17:43:38.888Z,101
2022-07-25T17:46:05.515Z,95
2022-07-25T17:48:32.145Z,61
2022-07-25T17:50:57.283Z,67
2022-07-25T17:53:22.390Z,73
2022-07-25T17:55:49.022Z,78
2022-07-25T17:58:15.638Z,78
2022-07-25T18:00:42.277Z,78
2022-07-25T18:03:08.892Z,73
2022-07-25T18:05:35.517Z,56
2022-07-25T18:08:02.119Z,56
2022-07-25T18:10:28.762Z,56
2022-07-25T18:12:55.390Z,84
2022-07-25T18:15:22.003Z,61
2022-07-25T18:17:48.635Z,50
2022-07-25T18:20:15.260Z,50
2022-07-25T18:22:41.872Z,61
2022-07-25T18:25:07.013Z,45
2022-07-25T18:27:33.629Z,39
2022-07-25T18:30:00.252Z,39
2022-07-25T18:32:26.868Z,28
2022-07-25T18:34:53.491Z,22
2022-07-25T18:37:20.117Z,22
2022-07-25T18:39:46.760Z,16
2022-07-25T18:44:40.014Z,11
2022-07-25T18:47:06.622Z,11
2022-07-25T18:49:33.235Z,11
2022-07-25T18:51:59.870Z,5
2022-07-25T18:54:26.494Z,5
2022-07-25T18:56:53.126Z,5
2022-07-25T18:59:18.246Z,5
2022-07-25T19:01:44.867Z,5
2022-07-25T19:04:11.503Z,0
2022-07-25T19:06:38.109Z,0
2022-07-25T19:09:04.734Z,0
2022-07-25T19:11:31.361Z,0
2022-07-25T19:13:57.986Z,0
2022-07-25T19:16:24.627Z,0
2022-07-25T19:18:51.245Z,0
2022-07-25T19:21:17.857Z,0
2022-07-25T19:23:44.477Z,0
2022-07-25T19:26:11.114Z,0
2022-07-25T19:28:37.739Z,0
2022-07-25T19:31:04.353Z,0
2022-07-25T19:33:29.472Z,0
2022-07-25T19:35:56.097Z,0
2022-07-25T19:38:22.727Z,0
2022-07-25T19:40:49.348Z,0
2022-07-25T19:43:15.978Z,0
2022-07-25T19:48:09.212Z,0
2022-07-25T19:50:35.838Z,0
2022-07-25T19:55:29.602Z,0
2022-07-25T19:57:55.699Z,0
2022-07-25T20:00:22.364Z,0
2022-07-25T20:02:48.954Z,0
2022-07-25T20:05:14.088Z,0
2022-07-25T20:10:07.334Z,0
2022-07-25T20:12:32.450Z,0
2022-07-25T20:14:59.085Z,0
2022-07-25T20:19:52.346Z,0
2022-07-25T20:22:17.454Z,0
2022-07-25T20:24:44.082Z,0
2022-07-25T20:27:10.701Z,0
2022-07-25T20:29:37.337Z,0
2022-07-25T20:32:03.947Z,0
2022-07-25T20:34:30.587Z,0
2022-07-25T20:36:57.196Z,0
2022-07-25T20:39:23.823Z,0
2022-07-25T20:49:10.326Z,0
2022-07-25T20:51:35.456Z,0
2022-07-25T20:54:00.578Z,0
2022-07-25T20:56:27.189Z,0
2022-07-25T20:58:53.828Z,0
2022-07-25T21:01:20.460Z,0
2022-07-25T21:03:47.072Z,0
2022-07-25T21:08:40.303Z,0
2022-07-25T21:11:06.931Z,0
2022-07-25T21:16:00.183Z,0
2022-07-25T21:18:26.799Z,0
2022-07-25T21:20:53.430Z,0
2022-07-25T21:23:20.048Z,0
2022-07-25T21:25:46.676Z,0
2022-07-25T21:28:11.798Z,0
2022-07-25T21:30:38.423Z,0
2022-07-25T21:33:05.049Z,0
2022-07-25T21:35:31.669Z,0
2022-07-25T21:37:58.303Z,0
2022-07-25T21:40:24.923Z,0
2022-07-25T21:42:51.539Z,0
2022-07-25T21:45:18.176Z,0
2022-07-25T21:47:44.780Z,0
2022-07-25T21:50:11.423Z,0
2022-07-25T21:52:38.033Z,0
2022-07-25T21:55:04.666Z,0
2022-07-25T21:57:31.279Z,0
2022-07-25T21:59:57.899Z,0
2022-07-25T22:02:24.526Z,0
2022-07-25T22:04:49.650Z,0
2022-07-25T22:07:14.803Z,0
2022-07-25T22:09:41.409Z,0
2022-07-25T22:12:08.029Z,0
2022-07-25T22:14:34.658Z,0
2022-07-25T22:17:01.275Z,0
2022-07-25T22:19:27.901Z,0
2022-07-25T22:21:54.518Z,0
2022-07-25T22:24:21.149Z,0
2022-07-25T22:26:47.770Z,0
2022-07-25T22:29:14.389Z,0
2022-07-25T22:31:39.514Z,0
2022-07-25T22:34:04.652Z,0
2022-07-25T22:36:29.775Z,0
2022-07-25T22:38:56.405Z,0
2022-07-25T22:41:23.015Z,0
2022-07-25T22:43:49.648Z,0
2022-07-25T22:46:16.274Z,0
2022-07-25T22:48:42.424Z,0
2022-07-25T22:51:09.058Z,0
2022-07-25T22:53:35.680Z,0
2022-07-25T22:56:02.302Z,0
2022-07-25T22:58:28.915Z,0
2022-07-25T23:00:55.549Z,0
2022-07-25T23:03:22.181Z,0
2022-07-25T23:05:48.798Z,0
2022-07-25T23:08:13.917Z,0
2022-07-25T23:10:40.529Z,0
2022-07-25T23:13:06.635Z,0
2022-07-25T23:15:33.255Z,0
2022-07-25T23:17:59.890Z,0
2022-07-25T23:22:53.128Z,0
2022-07-25T23:25:19.742Z,0
2022-07-25T23:27:46.365Z,0
2022-07-25T23:30:12.989Z,0
2022-07-25T23:32:39.617Z,0
2022-07-25T23:35:06.249Z,0
2022-07-25T23:37:32.863Z,0
2022-07-25T23:39:59.491Z,0
2022-07-25T23:42:26.107Z,0
2022-07-25T23:44:51.245Z,0
2022-07-25T23:47:17.858Z,0
2022-07-25T23:49:44.478Z,0
2022-07-25T23:52:11.102Z,0
2022-07-25T23:54:37.722Z,0
2022-07-25T23:57:04.348Z,0
2022-07-25T23:59:30.970Z,0
